createdAt,value
2023-03-13T00:04:39.645Z,5.10
2023-03-13T00:09:44.788Z,5.30
2023-03-13T00:14:49.294Z,5.40
2023-03-13T00:19:52.591Z,5.50
2023-03-13T00:24:57.235Z,5.60
2023-03-13T00:30:00.869Z,5.70
2023-03-13T00:35:05.024Z,5.80
2023-03-13T00:40:11.649Z,5.90
2023-03-13T00:45:15.019Z,6.00
2023-03-13T00:50:18.435Z,6.00
2023-03-13T00:55:23.223Z,6.00
2023-03-13T01:00:26.567Z,6.20
2023-03-13T01:05:29.880Z,6.20
2023-03-13T01:10:36.746Z,6.30
2023-03-13T01:15:40.162Z,6.30
2023-03-13T01:20:43.511Z,6.30
2023-03-13T01:25:48.074Z,6.40
2023-03-13T01:30:51.503Z,6.50
2023-03-13T01:36:01.502Z,6.50
2023-03-13T01:41:07.273Z,6.40
2023-03-13T01:46:14.082Z,6.50
2023-03-13T01:51:28.465Z,6.50
2023-03-13T01:56:38.285Z,6.50
2023-03-13T02:01:42.543Z,6.40
2023-03-13T02:06:50.153Z,6.70
2023-03-13T02:11:58.955Z,6.80
2023-03-13T02:17:03.826Z,6.70
2023-03-13T02:22:12.348Z,6.90
2023-03-13T02:27:17.180Z,6.80
2023-03-13T02:32:23.106Z,6.80
2023-03-13T02:37:28.975Z,6.80
2023-03-13T02:42:34.225Z,6.80
2023-03-13T02:47:38.607Z,6.80
2023-03-13T02:52:45.343Z,6.90
2023-03-13T02:57:51.124Z,7.00
2023-03-13T03:02:56.014Z,7.00
2023-03-13T03:07:59.442Z,7.10
2023-03-13T03:13:06.095Z,7.20
2023-03-13T03:18:09.500Z,7.30
2023-03-13T03:23:13.187Z,7.00
2023-03-13T03:28:17.974Z,7.00
2023-03-13T03:33:22.194Z,6.90
2023-03-13T03:38:26.124Z,6.80
2023-03-13T03:43:30.822Z,6.90
2023-03-13T03:48:34.986Z,6.90
2023-03-13T03:53:40.839Z,6.80
2023-03-13T03:58:45.750Z,6.80
2023-03-13T04:03:56.814Z,7.00
2023-03-13T04:09:00.158Z,7.00
2023-03-13T04:14:08.270Z,7.00
2023-03-13T04:19:12.113Z,7.10
2023-03-13T04:24:17.328Z,6.90
2023-03-13T04:29:23.124Z,6.90
2023-03-13T04:34:56.039Z,7.00
2023-03-13T04:40:13.977Z,7.00
2023-03-13T04:45:38.913Z,7.00
2023-03-13T04:51:17.779Z,7.00
2023-03-13T04:56:42.301Z,7.10
2023-03-13T05:02:03.762Z,7.10
2023-03-13T05:07:16.304Z,7.20
2023-03-13T05:12:38.867Z,7.30
2023-03-13T05:17:56.430Z,7.20
2023-03-13T05:23:09.609Z,7.20
2023-03-13T05:28:31.764Z,7.20
2023-03-13T05:33:56.690Z,7.30
2023-03-13T05:39:29.308Z,7.30
2023-03-13T05:44:45.040Z,7.30
2023-03-13T05:50:07.546Z,7.30
2023-03-13T05:55:31.365Z,7.30
2023-03-13T06:00:51.552Z,7.40
2023-03-13T06:06:17.339Z,7.50
2023-03-13T06:11:32.096Z,7.50
2023-03-13T06:16:35.940Z,7.40
2023-03-13T06:21:53.226Z,7.50
2023-03-13T06:26:56.497Z,7.50
2023-03-13T06:31:59.894Z,7.50
2023-03-13T06:37:04.973Z,7.50
2023-03-13T06:42:08.432Z,7.60
2023-03-13T06:47:13.599Z,7.60
2023-03-13T06:52:20.646Z,7.70
2023-03-13T06:57:25.149Z,7.90
2023-03-13T07:02:29.039Z,7.90
2023-03-13T07:07:34.140Z,7.90
2023-03-13T07:12:37.868Z,7.90
2023-03-13T07:17:41.298Z,7.90
2023-03-13T07:22:52.147Z,8.00
2023-03-13T07:27:55.528Z,8.00
2023-03-13T07:32:59.232Z,8.00
2023-03-13T07:38:03.907Z,8.00
2023-03-13T07:43:07.754Z,8.10
2023-03-13T07:48:11.392Z,8.30
2023-03-13T07:53:21.144Z,8.40
2023-03-13T07:58:25.873Z,8.50
2023-03-13T08:03:30.307Z,8.60
2023-03-13T08:08:35.426Z,8.50
2023-03-13T08:13:39.255Z,8.60
2023-03-13T08:18:44.840Z,8.50
2023-03-13T08:23:52.529Z,8.50
2023-03-13T08:28:58.137Z,8.50
2023-03-13T08:34:01.851Z,8.70
2023-03-13T08:39:13.789Z,8.60
2023-03-13T08:44:18.527Z,8.60
2023-03-13T08:49:22.038Z,8.60
2023-03-13T08:54:26.939Z,8.70
2023-03-13T08:59:30.579Z,8.80
2023-03-13T09:04:33.824Z,8.80
2023-03-13T09:09:38.461Z,8.90
2023-03-13T09:14:41.749Z,9.20
2023-03-13T09:19:57.813Z,9.20
2023-03-13T09:25:05.183Z,9.30
2023-03-13T09:30:10.133Z,9.40
2023-03-13T09:35:14.390Z,9.40
2023-03-13T09:40:21.605Z,9.40
2023-03-13T09:45:33.965Z,9.40
2023-03-13T09:50:43.796Z,9.50
2023-03-13T09:55:48.702Z,9.50
2023-03-13T10:00:56.951Z,9.60
2023-03-13T10:06:04.410Z,9.70
2023-03-13T10:11:12.403Z,9.70
2023-03-13T10:16:20.799Z,9.90
2023-03-13T10:21:32.072Z,10.00
2023-03-13T10:26:37.774Z,10.20
2023-03-13T10:31:47.230Z,10.40
2023-03-13T10:36:56.700Z,10.50
2023-03-13T10:42:11.176Z,10.70
2023-03-13T10:47:15.460Z,11.30
2023-03-13T10:52:31.928Z,11.70
2023-03-13T10:57:37.679Z,12.10
2023-03-13T11:02:41.153Z,12.20
2023-03-13T11:07:46.592Z,12.50
2023-03-13T11:12:53.693Z,13.00
2023-03-13T11:18:02.402Z,13.50
2023-03-13T11:23:18.548Z,13.40
2023-03-13T11:28:34.576Z,13.40
2023-03-13T11:33:53.276Z,13.20
2023-03-13T11:39:06.176Z,13.30
2023-03-13T11:44:28.656Z,13.50
2023-03-13T11:50:18.571Z,13.40
2023-03-13T11:55:48.438Z,13.50
2023-03-13T12:00:58.234Z,13.70
2023-03-13T12:06:03.678Z,14.00
2023-03-13T12:11:13.479Z,14.10
2023-03-13T12:16:23.961Z,14.80
2023-03-13T12:21:32.162Z,14.90
2023-03-13T12:26:40.234Z,15.00
2023-03-13T12:31:50.626Z,14.90
2023-03-13T12:37:01.188Z,14.70
2023-03-13T12:42:19.479Z,14.80
2023-03-13T12:47:32.301Z,15.00
2023-03-13T12:52:50.846Z,15.30
2023-03-13T12:58:38.016Z,16.90
2023-03-13T13:03:52.842Z,16.70
2023-03-13T13:09:08.304Z,16.80
2023-03-13T13:14:53.509Z,17.00
2023-03-13T13:20:19.057Z,18.00
2023-03-13T13:25:35.247Z,18.20
2023-03-13T13:30:38.727Z,18.10
2023-03-13T13:35:43.518Z,18.10
2023-03-13T13:40:59.502Z,17.90
2023-03-13T13:46:07.274Z,18.10
2023-03-13T13:51:25.447Z,18.40
2023-03-13T13:56:43.261Z,18.40
2023-03-13T14:01:47.823Z,17.80
2023-03-13T14:06:53.809Z,17.50
2023-03-13T14:11:57.845Z,17.20
2023-03-13T14:17:01.349Z,17.20
2023-03-13T14:22:07.120Z,17.90
2023-03-13T14:27:18.731Z,17.70
2023-03-13T14:32:26.372Z,17.70
2023-03-13T14:37:36.548Z,17.60
2023-03-13T14:42:44.300Z,17.50
2023-03-13T14:47:47.739Z,17.60
2023-03-13T14:52:55.389Z,17.40
2023-03-13T14:58:01.224Z,17.10
2023-03-13T15:03:28.608Z,17.70
2023-03-13T15:08:34.517Z,17.70
2023-03-13T15:13:38.184Z,17.70
2023-03-13T15:18:41.631Z,17.30
2023-03-13T15:23:50.005Z,17.40
2023-03-13T15:28:53.609Z,17.60
2023-03-13T15:33:59.913Z,17.00
2023-03-13T15:39:06.507Z,16.50
2023-03-13T15:44:09.889Z,16.10
2023-03-13T15:49:14.297Z,15.70
2023-03-13T15:54:19.310Z,15.60
2023-03-13T15:59:22.814Z,15.40
2023-03-13T16:04:26.405Z,15.50
2023-03-13T16:09:31.627Z,15.40
2023-03-13T16:14:35.717Z,15.30
2023-03-13T16:19:39.004Z,15.30
2023-03-13T16:24:43.599Z,15.30
2023-03-13T16:29:47.318Z,15.20
2023-03-13T16:34:50.543Z,15.20
2023-03-13T16:39:55.512Z,15.20
2023-03-13T16:44:59.361Z,15.00
2023-03-13T16:50:03.293Z,15.00
2023-03-13T16:55:09.014Z,15.00
2023-03-13T17:00:16.395Z,15.00
2023-03-13T17:05:20.164Z,15.10
2023-03-13T17:10:27.013Z,14.90
2023-03-13T17:15:30.353Z,14.70
2023-03-13T17:20:33.537Z,14.60
2023-03-13T17:25:38.272Z,14.40
2023-03-13T17:30:41.541Z,14.40
2023-03-13T17:35:45.109Z,14.30
2023-03-13T17:40:49.804Z,14.30
2023-03-13T17:45:54.533Z,14.10
2023-03-13T17:50:58.363Z,14.00
2023-03-13T17:56:02.988Z,14.20
2023-03-13T18:01:07.004Z,14.10
2023-03-13T18:06:18.494Z,13.90
2023-03-13T18:11:25.172Z,13.90
2023-03-13T18:16:37.455Z,14.00
2023-03-13T18:21:41.285Z,14.00
2023-03-13T18:26:47.963Z,14.00
2023-03-13T18:31:53.259Z,14.00
2023-03-13T18:37:03.489Z,14.00
2023-03-13T18:42:10.326Z,14.20
2023-03-13T18:47:16.246Z,14.00
2023-03-13T18:52:19.641Z,13.90
2023-03-13T18:57:24.258Z,13.90
2023-03-13T19:02:27.715Z,13.90
2023-03-13T19:07:31.026Z,14.00
2023-03-13T19:12:35.770Z,13.90
2023-03-13T19:17:39.100Z,13.90
2023-03-13T19:22:42.498Z,14.00
2023-03-13T19:27:48.289Z,13.90
2023-03-13T19:32:52.296Z,13.90
2023-03-13T19:37:55.761Z,13.90
2023-03-13T19:43:00.361Z,14.00
2023-03-13T19:48:04.363Z,13.70
2023-03-13T19:53:08.022Z,13.80
2023-03-13T19:58:13.291Z,13.90
2023-03-13T20:03:16.728Z,13.80
2023-03-13T20:08:20.076Z,13.70
2023-03-13T20:13:24.886Z,13.40
2023-03-13T20:18:28.428Z,13.30
2023-03-13T20:23:32.893Z,13.20
2023-03-13T20:28:38.386Z,13.20
2023-03-13T20:33:41.714Z,13.00
2023-03-13T20:38:45.236Z,13.00
2023-03-13T20:43:50.120Z,12.70
2023-03-13T20:48:53.378Z,12.50
2023-03-13T20:53:57.334Z,12.50
2023-03-13T20:59:02.179Z,12.50
2023-03-13T21:04:05.804Z,12.60
2023-03-13T21:09:09.125Z,12.60
2023-03-13T21:14:13.743Z,12.70
2023-03-13T21:19:17.198Z,12.80
2023-03-13T21:24:20.649Z,12.80
2023-03-13T21:29:25.693Z,12.80
2023-03-13T21:34:29.096Z,12.70
2023-03-13T21:39:32.821Z,12.80
2023-03-13T21:44:37.745Z,12.80
2023-03-13T21:49:41.063Z,12.60
2023-03-13T21:54:44.559Z,12.60
2023-03-13T21:59:49.689Z,12.60
2023-03-13T22:04:53.056Z,12.60
2023-03-13T22:09:57.027Z,12.50
2023-03-13T22:15:01.588Z,12.50
2023-03-13T22:20:06.845Z,12.60
2023-03-13T22:25:10.324Z,12.50
2023-03-13T22:30:15.348Z,12.70
2023-03-13T22:35:18.954Z,12.60
2023-03-13T22:40:22.962Z,12.50
2023-03-13T22:45:28.421Z,12.60
2023-03-13T22:50:32.231Z,12.50
2023-03-13T22:55:35.554Z,12.40
2023-03-13T23:00:40.785Z,12.30
2023-03-13T23:05:45.691Z,12.30
2023-03-13T23:10:49.141Z,12.20
2023-03-13T23:15:55.962Z,12.00
2023-03-13T23:21:04.836Z,12.00
2023-03-13T23:26:10.942Z,12.00
2023-03-13T23:31:18.489Z,11.90
2023-03-13T23:36:21.988Z,11.90
2023-03-13T23:41:25.481Z,11.70
2023-03-13T23:46:30.349Z,11.90
2023-03-13T23:51:33.794Z,11.60
2023-03-13T23:56:37.727Z,11.80
